Skip Navigation Links Skip Navigation Links

Current Weather

Jacobshavn Lufthavn, Greenland

For information only: do not use for flight planning or navigation.
Latest weather
Observation time Friday, December 3, 2021 5:50 AM AST
Local time Friday, December 3, 2021 6:29 AM AST
Flight conditions Marginal Visual Meteorological Conditions
Winds
Wind direction South (170°)
Wind speed 13 mph
Visibility 6.2 mi.
Present weather light snow showers
Sky condition
Ceiling 2,200 ft. broken clouds
Cloud layer broken clouds 2,200 ft.
Temperature 25°F
Dewpoint 16°F
Altimeter 29.62 in.Hg
Derived measurements
Relative humidity 68%
Wind chill 13°F
Density altitude -1909 ft.
METAR BGJN 030950Z 17011KT 9999 -SHSN BKN022 M04/M09 Q1003

Settings

Location code

InnerDrive.Weather 4.0.6770.0 Release CLR 4.0.30319.42000
Copyright ©2018 Inner Drive Technology. All rights reserved. Portions Copyright ©1986-2018 David Braverman.

Find weather

Site navigation


Skip Navigation Links

Place info

Page info

PayPal - The safer, easier way to pay online!

Return home.

Copyright ©2021 Inner Drive Technology. Purveyors of fine, hand-crafted computer software. Page printed 2021-12-03T10:29:01 UTC.